Time;durP1;ratioP1;P1;durP2;ratioP2;P2;SDS_P1;SDS_P2;PMS_P1;PMS_P2;Temp;Humidity;BMP_temperature;BMP_pressure;BME280_temperature;BME280_humidity;BME280_pressure;Samples;Min_cycle;Max_cycle;Signal;HPM_P1;HPM_P2
2022/03/13 00:00:11;;;;;;;6.32;2.45;;;;;;;;;;6015471;23;20007;-92
2022/03/13 00:02:40;;;;;;;8.48;2.50;;;;;;;;;;6015537;23;20013;-92
2022/03/13 00:05:09;;;;;;;8.65;2.85;;;;;;;;;;6015514;23;20365;-92
2022/03/13 00:07:38;;;;;;;7.55;3.08;;;;;;;;;;6015613;23;20485;-91
2022/03/13 00:10:05;;;;;;;10.63;3.35;;;;;;;;;;6014546;23;20063;-92
2022/03/13 00:12:32;;;;;;;9.75;2.85;;;;;;;;;;6015391;23;20342;-91
2022/03/13 00:15:05;;;;;;;9.75;3.53;;;;;;;;;;6015363;23;20004;-91
2022/03/13 00:17:31;;;;;;;8.13;3.10;;;;;;;;;;6015649;23;20038;-93
2022/03/13 00:20:00;;;;;;;10.35;3.70;;;;;;;;;;6015199;23;20035;-90
2022/03/13 00:22:31;;;;;;;11.80;4.20;;;;;;;;;;6015268;23;20062;-90
2022/03/13 00:24:59;;;;;;;17.35;4.32;;;;;;;;;;6040778;23;19995;-91
2022/03/13 00:27:26;;;;;;;10.40;3.90;;;;;;;;;;6015418;23;20042;-91
2022/03/13 00:29:53;;;;;;;10.40;4.20;;;;;;;;;;6014928;23;20031;-91
2022/03/13 00:32:19;;;;;;;10.07;3.55;;;;;;;;;;6015101;23;20245;-91
2022/03/13 00:34:45;;;;;;;8.85;3.58;;;;;;;;;;6039905;23;20022;-91
2022/03/13 00:37:11;;;;;;;14.85;3.60;;;;;;;;;;6015409;23;20044;-93
2022/03/13 00:39:41;;;;;;;9.88;4.07;;;;;;;;;;6015349;23;20034;-94
2022/03/13 00:42:08;;;;;;;12.85;3.38;;;;;;;;;;6040527;23;20008;-92
2022/03/13 00:44:34;;;;;;;7.80;2.95;;;;;;;;;;6015265;23;20010;-90
2022/03/13 00:47:01;;;;;;;9.55;3.00;;;;;;;;;;6020748;23;20011;-93
2022/03/13 00:49:27;;;;;;;6.60;2.40;;;;;;;;;;6041906;23;19999;-93
2022/03/13 00:51:53;;;;;;;10.95;2.90;;;;;;;;;;6041394;23;20438;-93
2022/03/13 00:54:20;;;;;;;10.65;2.78;;;;;;;;;;6040470;23;20434;-93
2022/03/13 00:56:46;;;;;;;10.77;2.50;;;;;;;;;;6040132;23;20007;-93
2022/03/13 00:59:12;;;;;;;9.32;2.58;;;;;;;;;;6015416;23;20036;-93
2022/03/13 01:01:38;;;;;;;10.52;2.47;;;;;;;;;;6015475;23;20033;-93
2022/03/13 01:04:05;;;;;;;11.38;3.05;;;;;;;;;;6016942;23;20027;-92
2022/03/13 01:06:31;;;;;;;11.70;2.45;;;;;;;;;;6016239;23;20015;-92
2022/03/13 01:08:57;;;;;;;10.18;3.05;;;;;;;;;;6017587;23;20003;-93
2022/03/13 01:11:24;;;;;;;8.45;2.58;;;;;;;;;;6017404;23;20063;-94
2022/03/13 01:13:50;;;;;;;9.52;2.25;;;;;;;;;;6041493;23;20014;-94
2022/03/13 01:16:21;;;;;;;8.88;2.35;;;;;;;;;;6018625;23;20011;-93
2022/03/13 01:18:48;;;;;;;13.93;2.40;;;;;;;;;;6020047;23;20093;-93
2022/03/13 01:21:15;;;;;;;10.18;2.28;;;;;;;;;;6047084;23;20014;-93
2022/03/13 01:23:42;;;;;;;9.65;1.90;;;;;;;;;;6018642;23;20033;-93
2022/03/13 01:26:26;;;;;;;11.32;2.35;;;;;;;;;;6018256;23;20380;-90
2022/03/13 01:28:56;;;;;;;11.88;2.35;;;;;;;;;;6018345;23;20470;-92
2022/03/13 01:31:24;;;;;;;6.78;2.30;;;;;;;;;;6015952;23;20359;-91
2022/03/13 01:33:50;;;;;;;13.40;2.30;;;;;;;;;;6042031;23;20013;-92
2022/03/13 01:36:16;;;;;;;10.73;2.10;;;;;;;;;;6015534;23;20056;-93
2022/03/13 01:38:42;;;;;;;9.90;2.08;;;;;;;;;;6041442;23;20014;-91
2022/03/13 01:41:09;;;;;;;5.43;1.98;;;;;;;;;;6042733;23;20513;-93
2022/03/13 01:43:35;;;;;;;6.95;2.00;;;;;;;;;;6042639;23;20003;-91
2022/03/13 01:46:02;;;;;;;10.90;2.08;;;;;;;;;;6019830;23;20011;-92
2022/03/13 01:48:29;;;;;;;7.43;1.95;;;;;;;;;;6044710;23;20008;-92
2022/03/13 01:50:55;;;;;;;8.73;2.17;;;;;;;;;;6019021;23;20053;-91
2022/03/13 01:53:23;;;;;;;6.68;2.03;;;;;;;;;;6016462;23;20004;-90
2022/03/13 01:55:51;;;;;;;8.48;2.75;;;;;;;;;;6016193;23;20387;-90
2022/03/13 01:58:18;;;;;;;9.23;2.38;;;;;;;;;;6041529;23;20078;-92
2022/03/13 02:00:46;;;;;;;6.60;1.95;;;;;;;;;;6016541;23;20499;-91
2022/03/13 02:03:13;;;;;;;10.40;2.47;;;;;;;;;;6017096;23;20067;-93
2022/03/13 02:05:40;;;;;;;9.57;2.38;;;;;;;;;;6016691;23;20046;-91
2022/03/13 02:08:12;;;;;;;10.60;2.22;;;;;;;;;;6041385;23;20045;-91
2022/03/13 02:10:38;;;;;;;8.23;1.65;;;;;;;;;;6016787;23;20006;-91
2022/03/13 02:13:05;;;;;;;4.60;1.83;;;;;;;;;;6016648;23;20003;-92
2022/03/13 02:15:32;;;;;;;5.65;1.90;;;;;;;;;;6041810;23;20015;-91
2022/03/13 02:18:00;;;;;;;5.57;1.90;;;;;;;;;;6017960;23;20357;-93
2022/03/13 02:20:27;;;;;;;7.18;2.25;;;;;;;;;;6041436;23;20015;-92
2022/03/13 02:23:00;;;;;;;6.78;2.00;;;;;;;;;;6041798;23;20085;-93
2022/03/13 02:25:31;;;;;;;5.70;2.10;;;;;;;;;;6016528;23;20039;-93
2022/03/13 02:27:58;;;;;;;8.15;2.28;;;;;;;;;;6040784;23;20003;-93
2022/03/13 02:30:25;;;;;;;9.95;2.42;;;;;;;;;;6041625;23;20435;-93
2022/03/13 02:32:52;;;;;;;6.97;2.47;;;;;;;;;;6041682;23;20442;-93
2022/03/13 02:35:19;;;;;;;6.40;1.88;;;;;;;;;;6015567;23;20019;-94
2022/03/13 02:37:46;;;;;;;11.23;1.60;;;;;;;;;;6016736;23;20043;-93
2022/03/13 02:40:23;;;;;;;3.60;1.58;;;;;;;;;;6017193;23;20015;-93
2022/03/13 02:42:50;;;;;;;7.05;2.22;;;;;;;;;;6015703;23;20027;-94
2022/03/13 02:45:26;;;;;;;5.18;1.52;;;;;;;;;;6041838;23;20011;-93
2022/03/13 02:47:52;;;;;;;5.50;1.75;;;;;;;;;;6014484;23;20014;-92
2022/03/13 02:50:19;;;;;;;7.75;2.08;;;;;;;;;;6016332;23;20058;-94
2022/03/13 02:52:47;;;;;;;7.65;2.45;;;;;;;;;;6015591;23;20011;-93
2022/03/13 02:55:13;;;;;;;7.20;2.28;;;;;;;;;;6017288;23;20014;-93
2022/03/13 02:57:39;;;;;;;9.57;3.17;;;;;;;;;;6018179;23;20094;-94
2022/03/13 03:00:08;;;;;;;14.77;4.13;;;;;;;;;;6016314;23;20365;-93
2022/03/13 03:02:35;;;;;;;8.55;4.00;;;;;;;;;;6019930;23;20010;-94
2022/03/13 03:05:06;;;;;;;10.32;3.70;;;;;;;;;;6018192;23;20014;-92
2022/03/13 03:07:32;;;;;;;9.57;3.45;;;;;;;;;;6017009;23;20416;-92
2022/03/13 03:09:58;;;;;;;13.13;4.30;;;;;;;;;;6015620;23;20014;-93
2022/03/13 03:12:25;;;;;;;10.40;4.30;;;;;;;;;;6016525;23;20007;-93
2022/03/13 03:14:51;;;;;;;14.23;5.15;;;;;;;;;;6015475;23;20059;-93
2022/03/13 03:17:18;;;;;;;12.35;4.22;;;;;;;;;;6014565;23;20056;-92
2022/03/13 03:19:44;;;;;;;13.88;5.40;;;;;;;;;;6018575;23;20014;-94
2022/03/13 03:22:10;;;;;;;12.68;4.85;;;;;;;;;;6017632;23;20036;-92
2022/03/13 03:24:37;;;;;;;13.05;4.90;;;;;;;;;;6015174;23;20320;-92
2022/03/13 03:27:04;;;;;;;16.38;5.30;;;;;;;;;;6015533;23;20011;-93
2022/03/13 03:29:30;;;;;;;11.10;5.25;;;;;;;;;;6039460;23;20086;-91
2022/03/13 03:31:57;;;;;;;14.63;5.15;;;;;;;;;;6014541;23;20086;-92
2022/03/13 03:34:25;;;;;;;13.82;5.55;;;;;;;;;;6040010;23;20011;-92
2022/03/13 03:36:58;;;;;;;11.30;5.55;;;;;;;;;;6039631;23;20023;-90
2022/03/13 03:39:26;;;;;;;11.23;4.50;;;;;;;;;;6014849;23;20094;-91
2022/03/13 03:41:53;;;;;;;8.68;4.20;;;;;;;;;;6039486;23;20069;-91
2022/03/13 03:44:20;;;;;;;11.05;4.20;;;;;;;;;;6039708;23;20003;-90
2022/03/13 03:46:47;;;;;;;8.65;3.58;;;;;;;;;;6014730;23;20094;-90
2022/03/13 03:49:13;;;;;;;11.32;4.55;;;;;;;;;;6014409;23;20053;-92
2022/03/13 03:51:40;;;;;;;10.70;3.75;;;;;;;;;;6015001;23;20094;-92
2022/03/13 03:54:07;;;;;;;10.93;4.97;;;;;;;;;;6014889;23;20058;-93
2022/03/13 03:56:34;;;;;;;9.80;5.20;;;;;;;;;;6014765;23;20007;-92
2022/03/13 03:59:00;;;;;;;10.00;4.70;;;;;;;;;;6014563;23;20015;-89
2022/03/13 04:01:29;;;;;;;13.90;5.57;;;;;;;;;;6039566;23;20015;-90
2022/03/13 04:03:56;;;;;;;13.02;6.15;;;;;;;;;;6014527;23;20090;-92
2022/03/13 04:06:22;;;;;;;24.95;7.97;;;;;;;;;;6014342;23;20007;-93
2022/03/13 04:08:49;;;;;;;19.63;7.85;;;;;;;;;;6014820;23;20034;-90
2022/03/13 04:11:15;;;;;;;19.52;8.40;;;;;;;;;;6013827;23;20003;-91
2022/03/13 04:13:41;;;;;;;25.13;9.48;;;;;;;;;;6014183;23;20008;-91
2022/03/13 04:16:08;;;;;;;36.72;9.23;;;;;;;;;;6013099;23;20313;-91
2022/03/13 04:18:35;;;;;;;28.10;9.45;;;;;;;;;;6012033;23;20007;-88
2022/03/13 04:21:03;;;;;;;21.90;9.27;;;;;;;;;;6033418;23;20423;-92
2022/03/13 04:23:30;;;;;;;27.65;9.32;;;;;;;;;;6013248;23;20011;-94
2022/03/13 04:25:56;;;;;;;30.33;9.80;;;;;;;;;;6012501;23;20007;-93
2022/03/13 04:28:23;;;;;;;28.52;9.63;;;;;;;;;;6039164;23;20064;-93
2022/03/13 04:30:53;;;;;;;28.98;9.50;;;;;;;;;;6013976;23;20424;-90
2022/03/13 04:33:21;;;;;;;30.70;8.60;;;;;;;;;;6013753;23;20011;-91
2022/03/13 04:35:48;;;;;;;32.28;9.35;;;;;;;;;;6039164;23;20018;-90
2022/03/13 04:38:15;;;;;;;28.50;9.38;;;;;;;;;;6038473;23;20041;-90
2022/03/13 04:40:41;;;;;;;32.65;9.48;;;;;;;;;;6014117;23;20003;-91
2022/03/13 04:43:08;;;;;;;33.80;10.70;;;;;;;;;;6039731;23;20004;-91
2022/03/13 04:45:35;;;;;;;41.55;9.73;;;;;;;;;;6015204;23;20015;-93
2022/03/13 04:48:01;;;;;;;41.83;10.70;;;;;;;;;;6014775;23;20004;-90
2022/03/13 04:50:28;;;;;;;40.30;11.68;;;;;;;;;;6013557;23;20030;-90
2022/03/13 04:52:54;;;;;;;48.08;11.75;;;;;;;;;;6014092;23;20105;-90
2022/03/13 04:55:20;;;;;;;42.03;10.20;;;;;;;;;;6015137;23;20011;-91
2022/03/13 04:57:46;;;;;;;49.45;11.02;;;;;;;;;;6039663;23;20006;-90
2022/03/13 05:00:13;;;;;;;40.28;10.73;;;;;;;;;;6015150;23;20118;-91
2022/03/13 05:02:39;;;;;;;38.58;7.93;;;;;;;;;;6040021;23;20423;-88
2022/03/13 05:05:06;;;;;;;28.35;6.82;;;;;;;;;;6015827;23;20012;-89
2022/03/13 05:07:32;;;;;;;21.13;6.47;;;;;;;;;;6041875;23;20007;-90
2022/03/13 05:09:59;;;;;;;20.02;5.88;;;;;;;;;;6015827;23;20008;-88
2022/03/13 05:12:27;;;;;;;13.65;5.03;;;;;;;;;;6015969;23;20004;-90
2022/03/13 05:14:54;;;;;;;15.35;5.65;;;;;;;;;;6013904;23;20010;-91
2022/03/13 05:17:20;;;;;;;22.42;6.68;;;;;;;;;;6041422;23;20008;-88
2022/03/13 05:19:46;;;;;;;17.48;7.03;;;;;;;;;;5993199;23;20099;-90
2022/03/13 05:22:13;;;;;;;15.05;6.60;;;;;;;;;;6040302;23;20055;-89
2022/03/13 05:24:39;;;;;;;12.35;5.63;;;;;;;;;;6016308;23;20039;-87
2022/03/13 05:27:05;;;;;;;13.20;6.45;;;;;;;;;;6015048;23;20098;-90
2022/03/13 05:29:32;;;;;;;16.63;6.10;;;;;;;;;;6015665;23;20011;-91
2022/03/13 05:31:58;;;;;;;11.43;5.70;;;;;;;;;;6016131;23;20038;-90
2022/03/13 05:34:24;;;;;;;13.00;6.30;;;;;;;;;;6041072;23;20011;-89
2022/03/13 05:36:51;;;;;;;15.05;6.25;;;;;;;;;;6010449;23;20118;-88
2022/03/13 05:39:23;;;;;;;12.63;5.70;;;;;;;;;;6008864;23;20004;-91
2022/03/13 05:41:50;;;;;;;11.23;5.72;;;;;;;;;;6009715;23;20015;-88
2022/03/13 05:44:17;;;;;;;16.70;5.90;;;;;;;;;;6010001;23;20037;-89
2022/03/13 05:46:43;;;;;;;11.90;5.95;;;;;;;;;;6035731;23;20067;-89
2022/03/13 05:49:10;;;;;;;12.07;5.55;;;;;;;;;;6009891;23;20003;-90
2022/03/13 05:51:37;;;;;;;12.63;6.32;;;;;;;;;;6009360;23;20430;-91
2022/03/13 05:54:04;;;;;;;13.35;5.85;;;;;;;;;;6009920;23;20007;-90
2022/03/13 05:56:33;;;;;;;13.35;5.95;;;;;;;;;;6009410;23;20038;-90
2022/03/13 05:59:02;;;;;;;15.07;7.07;;;;;;;;;;6031250;23;20031;-89
2022/03/13 06:01:28;;;;;;;34.83;9.00;;;;;;;;;;6033254;23;20013;-87
2022/03/13 06:03:55;;;;;;;22.83;8.30;;;;;;;;;;6009693;23;20003;-91
2022/03/13 06:06:22;;;;;;;22.70;9.25;;;;;;;;;;6010209;23;20007;-89
2022/03/13 06:08:48;;;;;;;23.20;8.95;;;;;;;;;;6006818;23;20035;-89
2022/03/13 06:11:14;;;;;;;20.05;8.52;;;;;;;;;;6010489;23;20003;-89
2022/03/13 06:13:41;;;;;;;19.77;7.93;;;;;;;;;;6010842;23;20031;-91
2022/03/13 06:16:07;;;;;;;23.67;9.35;;;;;;;;;;6010432;23;20152;-90
2022/03/13 06:18:34;;;;;;;20.48;8.07;;;;;;;;;;6036841;23;20132;-91
2022/03/13 06:21:03;;;;;;;16.80;7.05;;;;;;;;;;6012053;23;20007;-92
2022/03/13 06:23:30;;;;;;;21.15;9.55;;;;;;;;;;6014642;23;20023;-90
2022/03/13 06:25:59;;;;;;;20.98;10.75;;;;;;;;;;6009465;23;20011;-91
2022/03/13 06:28:26;;;;;;;25.10;12.07;;;;;;;;;;6010337;23;20090;-91
2022/03/13 06:30:55;;;;;;;19.83;11.50;;;;;;;;;;6008802;23;20047;-90
2022/03/13 06:33:22;;;;;;;22.50;11.10;;;;;;;;;;6009464;23;20057;-90
2022/03/13 06:35:49;;;;;;;23.48;10.85;;;;;;;;;;6009227;23;20159;-91
2022/03/13 06:38:15;;;;;;;18.83;9.77;;;;;;;;;;6011843;23;20673;-93
2022/03/13 06:40:42;;;;;;;27.00;13.30;;;;;;;;;;6010429;23;20510;-92
2022/03/13 06:43:08;;;;;;;37.35;21.95;;;;;;;;;;6010332;23;20055;-91
2022/03/13 06:45:35;;;;;;;42.78;24.70;;;;;;;;;;6035630;23;20003;-90
2022/03/13 06:48:01;;;;;;;54.03;30.95;;;;;;;;;;6009769;23;20427;-89
2022/03/13 06:50:28;;;;;;;52.28;31.35;;;;;;;;;;6010591;23;20014;-90
2022/03/13 06:52:55;;;;;;;53.75;30.83;;;;;;;;;;6010307;23;20007;-89
2022/03/13 06:55:22;;;;;;;47.63;28.42;;;;;;;;;;6009331;23;20012;-90
2022/03/13 06:57:49;;;;;;;40.90;23.65;;;;;;;;;;6009846;23;20008;-89
2022/03/13 07:00:16;;;;;;;36.78;22.83;;;;;;;;;;6008813;23;20082;-89
2022/03/13 07:02:43;;;;;;;40.92;21.50;;;;;;;;;;6010033;23;20098;-91
2022/03/13 07:05:09;;;;;;;31.33;19.42;;;;;;;;;;6009946;23;20046;-90
2022/03/13 07:07:35;;;;;;;35.83;24.65;;;;;;;;;;6011238;23;20017;-89
2022/03/13 07:10:02;;;;;;;45.88;29.38;;;;;;;;;;6009580;23;20075;-91
2022/03/13 07:12:28;;;;;;;37.53;23.80;;;;;;;;;;6034199;23;20082;-89
2022/03/13 07:14:57;;;;;;;38.17;22.90;;;;;;;;;;6034071;23;20003;-91
2022/03/13 07:17:24;;;;;;;40.85;23.58;;;;;;;;;;6009489;23;20095;-90
2022/03/13 07:19:51;;;;;;;34.88;19.95;;;;;;;;;;6034926;23;20022;-90
2022/03/13 07:22:17;;;;;;;32.40;20.23;;;;;;;;;;6009280;23;20003;-91
2022/03/13 07:24:46;;;;;;;37.15;20.65;;;;;;;;;;6008786;23;20023;-89
2022/03/13 07:27:13;;;;;;;32.53;19.33;;;;;;;;;;6009295;23;20008;-91
2022/03/13 07:29:40;;;;;;;36.90;22.23;;;;;;;;;;6008537;23;20007;-89
2022/03/13 07:32:06;;;;;;;45.80;26.45;;;;;;;;;;6009226;23;20004;-90
2022/03/13 07:34:33;;;;;;;50.97;28.88;;;;;;;;;;6008201;23;20015;-91
2022/03/13 07:36:59;;;;;;;47.65;28.77;;;;;;;;;;6008171;23;20087;-90
2022/03/13 07:39:25;;;;;;;46.53;26.65;;;;;;;;;;6034772;23;20000;-91
2022/03/13 07:41:56;;;;;;;41.33;23.25;;;;;;;;;;6009643;23;20012;-90
2022/03/13 07:44:22;;;;;;;36.78;19.10;;;;;;;;;;6010478;23;20415;-90
2022/03/13 07:46:48;;;;;;;33.70;20.25;;;;;;;;;;6010424;23;20003;-91
2022/03/13 07:49:15;;;;;;;41.15;22.60;;;;;;;;;;6010183;23;20090;-91
2022/03/13 07:51:43;;;;;;;37.05;21.60;;;;;;;;;;6036096;23;20003;-92
2022/03/13 07:54:10;;;;;;;36.67;21.27;;;;;;;;;;6007071;23;20011;-90
2022/03/13 07:56:37;;;;;;;37.25;22.58;;;;;;;;;;6008722;23;20026;-91
2022/03/13 07:59:08;;;;;;;48.58;28.58;;;;;;;;;;6008829;23;20011;-92
2022/03/13 08:01:35;;;;;;;57.55;29.45;;;;;;;;;;6008284;23;20063;-91
2022/03/13 08:04:04;;;;;;;52.30;26.25;;;;;;;;;;6008511;23;20407;-90
2022/03/13 08:06:34;;;;;;;37.70;22.88;;;;;;;;;;6008567;23;20018;-88
2022/03/13 08:09:01;;;;;;;39.90;20.45;;;;;;;;;;6008547;23;20039;-88
2022/03/13 08:11:27;;;;;;;35.03;18.13;;;;;;;;;;6032712;23;20035;-89
2022/03/13 08:13:53;;;;;;;35.63;19.33;;;;;;;;;;6011686;23;20094;-87
2022/03/13 08:16:19;;;;;;;31.75;17.67;;;;;;;;;;6011808;23;20012;-85
2022/03/13 08:18:46;;;;;;;28.10;16.92;;;;;;;;;;6013218;23;20441;-88
2022/03/13 08:21:12;;;;;;;23.92;14.13;;;;;;;;;;6012325;23;20010;-87
2022/03/13 08:23:39;;;;;;;31.52;16.00;;;;;;;;;;6012724;23;20003;-89
2022/03/13 08:26:05;;;;;;;30.48;16.15;;;;;;;;;;6013921;23;20491;-87
2022/03/13 08:28:32;;;;;;;33.20;18.35;;;;;;;;;;6013725;23;20007;-88
2022/03/13 08:30:58;;;;;;;31.85;20.92;;;;;;;;;;6013429;23;20083;-88
2022/03/13 08:33:24;;;;;;;34.85;18.55;;;;;;;;;;6039422;23;20006;-87
2022/03/13 08:35:51;;;;;;;34.50;17.73;;;;;;;;;;6036706;23;20019;-89
2022/03/13 08:38:17;;;;;;;39.97;20.83;;;;;;;;;;6013956;23;20026;-91
2022/03/13 08:40:45;;;;;;;33.75;16.30;;;;;;;;;;6036569;23;20034;-88
2022/03/13 08:43:12;;;;;;;24.90;13.32;;;;;;;;;;6040306;23;20007;-89
2022/03/13 08:45:39;;;;;;;32.40;10.38;;;;;;;;;;6015130;23;20320;-88
2022/03/13 08:48:06;;;;;;;25.33;10.88;;;;;;;;;;6037186;23;20400;-87
2022/03/13 09:01:10;;;;;;;32.45;14.10;;;;;;;;;;6067080;23;20357;-89
2022/03/13 09:03:46;;;;;;;30.40;11.80;;;;;;;;;;6065523;23;20074;-89
2022/03/13 09:06:18;;;;;;;34.38;12.57;;;;;;;;;;6065530;23;20030;-89
2022/03/13 09:08:45;;;;;;;39.22;15.32;;;;;;;;;;6065260;23;20368;-88
2022/03/13 09:11:18;;;;;;;39.38;18.02;;;;;;;;;;6066558;23;20383;-87
2022/03/13 09:13:50;;;;;;;33.25;17.08;;;;;;;;;;6065442;23;20007;-87
2022/03/13 09:16:19;;;;;;;39.15;19.38;;;;;;;;;;6067399;23;20002;-87
2022/03/13 09:18:51;;;;;;;45.13;22.02;;;;;;;;;;6065210;23;20010;-87
2022/03/13 09:21:20;;;;;;;45.20;20.73;;;;;;;;;;6065853;23;20011;-85
2022/03/13 09:23:46;;;;;;;42.42;21.40;;;;;;;;;;6065131;23;20006;-86
2022/03/13 09:26:14;;;;;;;42.28;21.38;;;;;;;;;;6066864;23;20011;-85
2022/03/13 09:28:41;;;;;;;49.47;25.30;;;;;;;;;;6065324;23;20093;-85
2022/03/13 09:31:09;;;;;;;53.47;27.08;;;;;;;;;;6065225;23;20056;-85
2022/03/13 09:33:35;;;;;;;46.10;22.30;;;;;;;;;;6064139;23;20081;-84
2022/03/13 09:36:05;;;;;;;40.45;20.27;;;;;;;;;;6065306;23;20497;-84
2022/03/13 09:38:32;;;;;;;43.92;20.15;;;;;;;;;;6064582;23;20138;-84
2022/03/13 09:40:59;;;;;;;50.03;22.15;;;;;;;;;;6064941;23;20340;-85
2022/03/13 09:43:26;;;;;;;38.83;18.13;;;;;;;;;;6064805;23;20017;-84
2022/03/13 09:45:52;;;;;;;44.78;17.50;;;;;;;;;;6067032;23;20435;-84
2022/03/13 09:48:21;;;;;;;47.22;20.13;;;;;;;;;;6068746;23;20003;-84
2022/03/13 09:50:48;;;;;;;35.80;18.40;;;;;;;;;;6067224;23;20309;-83
2022/03/13 09:53:14;;;;;;;46.20;21.88;;;;;;;;;;6067086;23;20003;-84
2022/03/13 09:55:41;;;;;;;56.88;26.02;;;;;;;;;;6068570;23;20424;-84
2022/03/13 09:58:08;;;;;;;47.72;22.65;;;;;;;;;;6067415;23;19999;-83
2022/03/13 10:00:36;;;;;;;45.70;23.50;;;;;;;;;;6068219;23;20124;-83
2022/03/13 10:03:08;;;;;;;41.53;19.38;;;;;;;;;;6066871;23;20011;-83
2022/03/13 10:05:47;;;;;;;40.80;18.67;;;;;;;;;;6068222;23;20009;-84
2022/03/13 10:08:18;;;;;;;40.10;19.02;;;;;;;;;;6068936;23;20362;-83
2022/03/13 10:10:51;;;;;;;43.00;20.40;;;;;;;;;;6065453;23;20003;-83
2022/03/13 10:13:36;;;;;;;36.42;15.75;;;;;;;;;;6065306;23;20012;-84
2022/03/13 10:16:03;;;;;;;42.75;15.80;;;;;;;;;;6065972;23;20010;-82
2022/03/13 10:18:32;;;;;;;40.85;16.10;;;;;;;;;;6067460;23;20362;-82
2022/03/13 10:21:07;;;;;;;33.75;14.70;;;;;;;;;;6067157;23;20025;-83
2022/03/13 10:23:33;;;;;;;40.45;16.05;;;;;;;;;;6067554;23;20086;-83
2022/03/13 10:26:04;;;;;;;35.70;15.43;;;;;;;;;;6068199;23;20435;-83
2022/03/13 10:28:31;;;;;;;33.83;14.63;;;;;;;;;;6066011;23;20090;-82
2022/03/13 10:31:01;;;;;;;34.88;13.45;;;;;;;;;;6066285;23;20003;-84
2022/03/13 10:33:28;;;;;;;37.70;17.30;;;;;;;;;;6066297;23;20011;-84
2022/03/13 10:36:14;;;;;;;37.85;16.25;;;;;;;;;;6066776;23;20010;-83
2022/03/13 10:38:41;;;;;;;40.45;13.68;;;;;;;;;;6066724;23;20054;-83
2022/03/13 10:41:10;;;;;;;38.53;15.68;;;;;;;;;;6068306;23;20473;-84
2022/03/13 10:44:02;;;;;;;39.22;13.32;;;;;;;;;;6066938;23;20090;-83
2022/03/13 10:46:34;;;;;;;35.47;11.65;;;;;;;;;;6058570;23;20486;-83
2022/03/13 10:49:06;;;;;;;30.20;10.07;;;;;;;;;;6068636;23;20003;-83
2022/03/13 10:51:49;;;;;;;33.13;10.10;;;;;;;;;;6066099;23;20011;-84
2022/03/13 10:54:37;;;;;;;27.10;7.15;;;;;;;;;;6065717;23;20058;-83
2022/03/13 10:57:10;;;;;;;23.65;6.47;;;;;;;;;;6068057;23;20034;-83
2022/03/13 10:59:39;;;;;;;21.83;5.93;;;;;;;;;;6066179;23;20027;-84
2022/03/13 11:02:12;;;;;;;26.55;8.15;;;;;;;;;;6065921;23;20018;-84
2022/03/13 11:04:50;;;;;;;23.02;9.50;;;;;;;;;;6066268;23;20081;-82
2022/03/13 11:07:17;;;;;;;25.98;9.10;;;;;;;;;;6066404;23;20086;-83
2022/03/13 11:09:44;;;;;;;31.02;8.63;;;;;;;;;;6068034;23;20327;-82
2022/03/13 11:12:20;;;;;;;23.48;7.25;;;;;;;;;;6066278;23;20090;-82
2022/03/13 11:14:49;;;;;;;26.95;6.32;;;;;;;;;;6066290;23;20030;-83
2022/03/13 11:17:19;;;;;;;22.05;6.03;;;;;;;;;;6068073;23;20014;-83
2022/03/13 11:19:49;;;;;;;23.70;6.88;;;;;;;;;;6066499;23;20018;-84
2022/03/13 11:22:21;;;;;;;31.98;10.05;;;;;;;;;;6066754;23;20011;-83
2022/03/13 11:24:52;;;;;;;35.40;13.75;;;;;;;;;;6065755;23;20010;-83
2022/03/13 11:27:25;;;;;;;37.20;13.60;;;;;;;;;;6067395;23;20010;-83
2022/03/13 11:29:54;;;;;;;37.33;12.52;;;;;;;;;;6064569;23;20018;-83
2022/03/13 11:32:30;;;;;;;40.85;13.43;;;;;;;;;;6064328;23;20003;-83
2022/03/13 11:35:14;;;;;;;36.10;14.73;;;;;;;;;;6064183;23;20012;-83
2022/03/13 11:37:41;;;;;;;32.60;9.30;;;;;;;;;;6067778;23;20022;-83
2022/03/13 11:40:09;;;;;;;36.03;11.55;;;;;;;;;;6065726;23;20014;-83
2022/03/13 11:42:47;;;;;;;35.83;11.02;;;;;;;;;;6065256;23;20054;-83
2022/03/13 11:45:34;;;;;;;39.45;12.48;;;;;;;;;;6065575;23;20388;-83
2022/03/13 11:48:08;;;;;;;38.70;13.13;;;;;;;;;;6064392;23;20391;-84
2022/03/13 11:50:54;;;;;;;35.60;12.77;;;;;;;;;;6067145;23;19999;-83
2022/03/13 11:53:20;;;;;;;33.53;13.30;;;;;;;;;;6067066;23;20010;-82
2022/03/13 11:56:10;;;;;;;35.92;12.07;;;;;;;;;;6063924;23;20011;-82
2022/03/13 11:58:40;;;;;;;24.45;8.48;;;;;;;;;;6065417;23;20013;-82
2022/03/13 12:01:20;;;;;;;26.17;7.82;;;;;;;;;;6065714;23;20074;-83
2022/03/13 12:04:15;;;;;;;30.05;9.50;;;;;;;;;;5977708;24;20091;-83
2022/03/13 12:06:41;;;;;;;26.23;9.77;;;;;;;;;;6036698;23;20011;-84
2022/03/13 12:09:20;;;;;;;29.05;10.98;;;;;;;;;;6065721;23;20003;-81
2022/03/13 12:11:47;;;;;;;32.83;11.90;;;;;;;;;;6064494;23;20087;-81
2022/03/13 12:14:14;;;;;;;28.50;12.43;;;;;;;;;;6065130;23;20007;-81
2022/03/13 12:16:42;;;;;;;37.10;15.23;;;;;;;;;;6065704;23;20411;-81
2022/03/13 12:19:10;;;;;;;42.15;18.65;;;;;;;;;;6067454;23;20046;-81
2022/03/13 12:21:37;;;;;;;41.60;16.88;;;;;;;;;;6066132;23;20007;-81
2022/03/13 12:24:20;;;;;;;39.13;14.70;;;;;;;;;;6065390;23;20011;-82
2022/03/13 12:26:48;;;;;;;48.47;17.77;;;;;;;;;;6062617;23;20038;-82
2022/03/13 12:29:20;;;;;;;47.85;17.95;;;;;;;;;;6066590;23;20054;-83
2022/03/13 12:31:53;;;;;;;40.05;17.75;;;;;;;;;;6066002;23;20003;-83
2022/03/13 12:34:32;;;;;;;40.03;14.18;;;;;;;;;;6063132;23;20336;-83
2022/03/13 12:37:07;;;;;;;33.50;14.20;;;;;;;;;;6065429;23;20396;-83
2022/03/13 12:39:36;;;;;;;38.00;14.45;;;;;;;;;;6065082;23;20339;-83
2022/03/13 12:42:06;;;;;;;49.28;17.63;;;;;;;;;;6065230;23;20014;-83
2022/03/13 12:44:36;;;;;;;52.80;20.45;;;;;;;;;;6064610;23;20026;-83
2022/03/13 12:47:08;;;;;;;53.33;21.15;;;;;;;;;;6066876;23;20011;-82
2022/03/13 12:49:36;;;;;;;56.85;22.08;;;;;;;;;;6064650;23;20383;-82
2022/03/13 12:52:13;;;;;;;62.85;24.08;;;;;;;;;;6067244;23;20059;-82
2022/03/13 12:54:42;;;;;;;61.38;26.75;;;;;;;;;;6065400;23;20013;-83
2022/03/13 12:57:12;;;;;;;57.55;25.10;;;;;;;;;;6065764;23;20022;-82
2022/03/13 12:59:41;;;;;;;62.30;28.67;;;;;;;;;;6065684;23;20067;-83
2022/03/13 13:02:16;;;;;;;79.68;35.35;;;;;;;;;;6067050;23;20054;-83
2022/03/13 13:04:47;;;;;;;91.75;41.42;;;;;;;;;;6065098;23;20109;-83
2022/03/13 13:07:15;;;;;;;84.55;37.33;;;;;;;;;;6066641;23;20035;-82
2022/03/13 13:09:45;;;;;;;80.43;34.78;;;;;;;;;;6063714;23;20082;-83
2022/03/13 13:12:12;;;;;;;65.88;30.30;;;;;;;;;;6065268;23;20003;-83
2022/03/13 13:14:40;;;;;;;66.03;31.83;;;;;;;;;;6065213;23;20013;-82
2022/03/13 13:17:08;;;;;;;75.07;33.78;;;;;;;;;;6064975;23;20015;-82
2022/03/13 13:19:39;;;;;;;66.55;32.25;;;;;;;;;;6067332;23;20018;-82
2022/03/13 13:22:05;;;;;;;62.38;29.63;;;;;;;;;;6066450;23;20459;-83
2022/03/13 13:24:36;;;;;;;70.85;28.63;;;;;;;;;;6068440;23;20018;-82
2022/03/13 13:27:07;;;;;;;49.58;24.33;;;;;;;;;;6066870;23;20029;-82
2022/03/13 13:29:35;;;;;;;37.25;18.90;;;;;;;;;;6066851;23;20439;-82
2022/03/13 13:32:17;;;;;;;47.10;20.77;;;;;;;;;;6066932;23;20428;-82
2022/03/13 13:35:03;;;;;;;45.63;21.33;;;;;;;;;;6068403;23;20006;-82
2022/03/13 13:37:30;;;;;;;49.25;24.42;;;;;;;;;;6067274;23;20347;-82
2022/03/13 13:40:04;;;;;;;77.20;41.85;;;;;;;;;;6064887;23;20069;-83
2022/03/13 13:42:32;;;;;;;83.43;44.25;;;;;;;;;;6066899;23;20520;-83
2022/03/13 13:45:00;;;;;;;71.63;37.42;;;;;;;;;;6067134;23;20015;-82
2022/03/13 13:47:26;;;;;;;64.05;29.40;;;;;;;;;;6066688;23;20007;-83
2022/03/13 13:49:53;;;;;;;65.32;32.53;;;;;;;;;;6068651;23;20018;-82
2022/03/13 13:52:19;;;;;;;62.55;31.83;;;;;;;;;;6068755;23;20393;-82
2022/03/13 13:54:46;;;;;;;49.38;21.52;;;;;;;;;;6066936;23;20006;-81
2022/03/13 13:57:22;;;;;;;63.30;23.60;;;;;;;;;;6068696;23;20058;-82
2022/03/13 13:59:49;;;;;;;53.78;24.27;;;;;;;;;;6067086;23;20786;-82
2022/03/13 14:02:18;;;;;;;56.75;24.05;;;;;;;;;;6067192;23;20065;-83
2022/03/13 14:04:48;;;;;;;58.88;20.85;;;;;;;;;;6067868;23;20007;-82
2022/03/13 14:07:14;;;;;;;42.45;13.10;;;;;;;;;;6066567;23;20086;-82
2022/03/13 14:09:41;;;;;;;43.03;11.15;;;;;;;;;;6066748;23;20006;-81
2022/03/13 14:12:08;;;;;;;34.47;12.30;;;;;;;;;;6068913;23;20422;-82
2022/03/13 14:14:35;;;;;;;41.92;12.90;;;;;;;;;;6066864;23;20037;-82
2022/03/13 14:17:02;;;;;;;49.25;21.52;;;;;;;;;;6068077;23;20002;-82
2022/03/13 14:19:30;;;;;;;57.92;16.98;;;;;;;;;;6066787;23;20069;-82
2022/03/13 14:21:58;;;;;;;46.00;14.98;;;;;;;;;;6066799;23;20023;-82
2022/03/13 14:24:24;;;;;;;37.35;11.35;;;;;;;;;;6066750;23;20066;-82
2022/03/13 14:26:51;;;;;;;40.25;8.95;;;;;;;;;;6066180;23;20007;-81
2022/03/13 14:29:20;;;;;;;27.67;9.07;;;;;;;;;;6066567;23;20034;-82
2022/03/13 14:31:50;;;;;;;38.78;10.13;;;;;;;;;;6066771;23;20328;-82
2022/03/13 14:34:18;;;;;;;43.08;7.75;;;;;;;;;;6066156;23;20086;-82
2022/03/13 14:36:45;;;;;;;38.53;9.90;;;;;;;;;;6066788;23;20395;-82
2022/03/13 14:39:12;;;;;;;33.58;7.32;;;;;;;;;;6066627;23;20010;-82
2022/03/13 14:41:39;;;;;;;41.42;8.55;;;;;;;;;;6066621;23;20007;-83
2022/03/13 14:44:06;;;;;;;35.95;7.32;;;;;;;;;;6066231;23;20015;-82